Aviation Digital Data Service (ADDS)

Output produced by METARs form (0610 UTC 16 February 2019)
found at http://www.aviationweather.gov/metar/data/
 
Forecast for: LIMF (TORINO/CASELLE , IT)
Text: TAF LIMF 160500Z 1606/1706 VRB05KT CAVOK
Forecast period: 0600 UTC 16 February 2019 to 0600 UTC 17 February 2019
Forecast type: FROM: standard forecast or significant change
Winds: variable direction winds at 6 MPH (5 knots; 2.6 m/s)
Visibility: 6 or more miles 10+ km)
Ceiling: unknown
Clouds: missing
Weather: NSW  (no significant weather)